Terminal Aerodrome Forecast
Issued by NWS

Home | Current Version | Previous Version | Text Only | Print | Product List | Glossary On
Versions: 1 2 3 4 5 6 7 8 9 10 11 12 13 14 15 16 17 18 19 20 21 22 23 24 25 26 27 28
000
FTUS45 KREV 221123
TAFTVL
TAF
KTVL 221123Z 2212/2312 19004KT P6SM FEW002 OVC050
     FM221600 VRB04KT P6SM FEW004 SCT050 SCT090
     FM221900 04005KT P6SM VCSH BKN050 OVC080
     FM222200 04005KT P6SM -SHRA VCTS BKN040CB OVC060
     FM230400 19003KT P6SM VCSH SCT040 BKN070
     FM230800 VRB03KT P6SM FEW040 SCT070 BKN110=

USA.gov is the U.S. government's official web portal to all federal, state and local government web resources and services.